Time;durP1;ratioP1;P1;durP2;ratioP2;P2;SDS_P1;SDS_P2;PMS_P1;PMS_P2;Temp;Humidity;BMP_temperature;BMP_pressure;BME280_temperature;BME280_humidity;BME280_pressure;Samples;Min_cycle;Max_cycle;Signal;HPM_P1;HPM_P2
2022/03/07 00:01:25;;;;;;;7.15;3.60;;;;;;;;;;1756344;81;21100;-70
2022/03/07 00:03:52;;;;;;;7.08;3.75;;;;;;;;;;1730019;83;21068;-70
2022/03/07 00:06:19;;;;;;;7.17;4.00;;;;;;;;;;1730104;83;21052;-69
2022/03/07 00:08:45;;;;;;;6.95;4.17;;;;;;;;;;1730024;82;21025;-70
2022/03/07 00:11:13;;;;;;;7.22;4.20;;;;;;;;;;1729812;82;21020;-70
2022/03/07 00:13:43;;;;;;;7.28;3.37;;;;;;;;;;1729873;82;21088;-70
2022/03/07 00:16:11;;;;;;;7.12;3.40;;;;;;;;;;1729889;82;21060;-70
2022/03/07 00:18:38;;;;;;;9.13;3.30;;;;;;;;;;1729944;83;21137;-68
2022/03/07 00:21:06;;;;;;;5.75;3.00;;;;;;;;;;1723651;82;21006;-69
2022/03/07 00:23:35;;;;;;;6.22;3.20;;;;;;;;;;1717164;83;21025;-69
2022/03/07 00:26:01;;;;;;;4.45;3.00;;;;;;;;;;1717228;83;21033;-69
2022/03/07 00:28:28;;;;;;;5.62;3.00;;;;;;;;;;1717407;83;21120;-69
2022/03/07 00:30:56;;;;;;;7.83;3.40;;;;;;;;;;1717183;83;21094;-70
2022/03/07 00:33:23;;;;;;;4.58;2.58;;;;;;;;;;1717012;83;21009;-70
2022/03/07 00:35:49;;;;;;;5.72;2.98;;;;;;;;;;1716890;83;21010;-69
2022/03/07 00:38:18;;;;;;;5.67;3.10;;;;;;;;;;1716887;83;21049;-69
2022/03/07 00:40:46;;;;;;;7.40;3.08;;;;;;;;;;1716702;83;21057;-69
2022/03/07 00:43:12;;;;;;;3.98;2.65;;;;;;;;;;1716866;83;21013;-70
2022/03/07 00:45:40;;;;;;;3.80;2.67;;;;;;;;;;1716948;83;21595;-70
2022/03/07 00:48:06;;;;;;;4.62;2.45;;;;;;;;;;1716872;83;21029;-68
2022/03/07 00:50:33;;;;;;;5.62;3.00;;;;;;;;;;1717066;83;21162;-68
2022/03/07 00:53:01;;;;;;;4.20;2.22;;;;;;;;;;1716869;83;21073;-69
2022/03/07 00:55:28;;;;;;;4.15;2.33;;;;;;;;;;1716973;83;21076;-69
2022/03/07 00:57:56;;;;;;;6.75;2.98;;;;;;;;;;1717055;83;21010;-70
2022/03/07 01:00:24;;;;;;;8.00;3.37;;;;;;;;;;1717001;83;21529;-69
2022/03/07 01:02:50;;;;;;;3.98;2.58;;;;;;;;;;1716812;82;21155;-69
2022/03/07 01:05:17;;;;;;;3.55;2.22;;;;;;;;;;1716925;83;21041;-69
2022/03/07 01:07:44;;;;;;;4.05;2.83;;;;;;;;;;1716724;83;21037;-69
2022/03/07 01:10:11;;;;;;;6.72;2.83;;;;;;;;;;1716975;83;21057;-69
2022/03/07 01:12:39;;;;;;;6.10;3.50;;;;;;;;;;1716701;83;21045;-69
2022/03/07 01:15:07;;;;;;;4.80;2.75;;;;;;;;;;1716906;83;21053;-69
2022/03/07 01:17:36;;;;;;;7.03;2.80;;;;;;;;;;1716649;83;21069;-69
2022/03/07 01:20:03;;;;;;;7.28;3.75;;;;;;;;;;1716545;83;21065;-69
2022/03/07 01:22:31;;;;;;;6.42;3.10;;;;;;;;;;1728863;83;21121;-69
2022/03/07 01:24:57;;;;;;;4.00;2.80;;;;;;;;;;1713334;83;21150;-69
2022/03/07 01:27:24;;;;;;;5.33;2.58;;;;;;;;;;1729882;83;21024;-69
2022/03/07 01:29:52;;;;;;;5.80;2.77;;;;;;;;;;1729431;83;21062;-70
2022/03/07 01:32:18;;;;;;;4.87;2.60;;;;;;;;;;1729888;83;21044;-69
2022/03/07 01:34:45;;;;;;;4.00;2.22;;;;;;;;;;1729749;83;20997;-70
2022/03/07 01:37:11;;;;;;;3.17;2.40;;;;;;;;;;1729561;82;21072;-68
2022/03/07 01:39:38;;;;;;;5.72;2.67;;;;;;;;;;1729804;83;21029;-69
2022/03/07 01:42:04;;;;;;;4.33;2.40;;;;;;;;;;1729760;82;21081;-70
2022/03/07 01:44:34;;;;;;;3.35;2.40;;;;;;;;;;1729638;83;21588;-69
2022/03/07 01:47:01;;;;;;;3.58;2.58;;;;;;;;;;1729831;83;21045;-69
2022/03/07 01:49:27;;;;;;;6.25;2.92;;;;;;;;;;1729805;83;21497;-69
2022/03/07 01:51:54;;;;;;;8.53;3.22;;;;;;;;;;1729441;82;21108;-70
2022/03/07 01:54:22;;;;;;;8.45;3.70;;;;;;;;;;1729592;82;21044;-69
2022/03/07 01:56:48;;;;;;;6.30;2.55;;;;;;;;;;1729707;83;21016;-70
2022/03/07 01:59:17;;;;;;;7.33;3.30;;;;;;;;;;1729531;83;21080;-69
2022/03/07 02:04:32;;;;;;;3.37;2.60;;;;;;;;;;1763006;79;21091;-68
2022/03/07 02:07:00;;;;;;;2.95;2.12;;;;;;;;;;1759472;81;21584;-68
2022/03/07 02:09:26;;;;;;;5.40;2.60;;;;;;;;;;1779236;81;21024;-68
2022/03/07 02:11:53;;;;;;;3.15;2.12;;;;;;;;;;1779269;81;21060;-69
2022/03/07 02:14:22;;;;;;;6.67;3.05;;;;;;;;;;1779512;81;21488;-69
2022/03/07 02:16:50;;;;;;;3.15;2.22;;;;;;;;;;1779243;80;21022;-70
2022/03/07 02:19:17;;;;;;;5.20;3.25;;;;;;;;;;1779205;81;20981;-69
2022/03/07 02:21:46;;;;;;;3.20;2.40;;;;;;;;;;1779042;81;21057;-69
2022/03/07 02:24:18;;;;;;;3.15;2.12;;;;;;;;;;1778780;80;20989;-69
2022/03/07 02:26:56;;;;;;;4.67;2.37;;;;;;;;;;1778902;81;21041;-69
2022/03/07 02:29:23;;;;;;;4.12;2.60;;;;;;;;;;1779284;81;21045;-68
2022/03/07 02:31:52;;;;;;;5.00;2.80;;;;;;;;;;1778939;81;21037;-68
2022/03/07 02:34:20;;;;;;;4.55;3.00;;;;;;;;;;1779072;81;21100;-69
2022/03/07 02:36:46;;;;;;;3.95;2.70;;;;;;;;;;1779163;81;21575;-69
2022/03/07 02:39:14;;;;;;;5.15;2.98;;;;;;;;;;1779241;81;21076;-69
2022/03/07 02:41:40;;;;;;;3.98;2.40;;;;;;;;;;1779115;81;21115;-69
2022/03/07 02:44:07;;;;;;;4.25;2.67;;;;;;;;;;1779210;81;21540;-68
2022/03/07 02:46:35;;;;;;;4.33;2.70;;;;;;;;;;1779358;81;21555;-69
2022/03/07 02:49:02;;;;;;;3.72;2.33;;;;;;;;;;1778820;81;21060;-69
2022/03/07 02:51:28;;;;;;;3.52;2.30;;;;;;;;;;1779302;81;21112;-69
2022/03/07 02:53:55;;;;;;;3.80;2.75;;;;;;;;;;1779057;81;21029;-69
2022/03/07 02:56:21;;;;;;;5.42;3.10;;;;;;;;;;1779447;80;21021;-69
2022/03/07 02:58:48;;;;;;;4.80;2.70;;;;;;;;;;1778998;81;21568;-69
2022/03/07 03:01:15;;;;;;;5.05;2.70;;;;;;;;;;1779419;81;21079;-68
2022/03/07 03:03:42;;;;;;;5.20;2.72;;;;;;;;;;1777878;79;21069;-69
2022/03/07 03:06:09;;;;;;;3.95;2.60;;;;;;;;;;1765828;81;21103;-68
2022/03/07 03:08:36;;;;;;;5.03;2.72;;;;;;;;;;1765707;81;21061;-69
2022/03/07 03:11:03;;;;;;;5.47;2.87;;;;;;;;;;1765767;81;21022;-68
2022/03/07 03:13:29;;;;;;;8.40;3.42;;;;;;;;;;1765751;81;21525;-69
2022/03/07 03:15:56;;;;;;;4.00;2.65;;;;;;;;;;1765490;81;21116;-68
2022/03/07 03:18:23;;;;;;;4.60;2.92;;;;;;;;;;1765840;81;21017;-68
2022/03/07 03:20:51;;;;;;;3.85;2.47;;;;;;;;;;1765325;81;21068;-68
2022/03/07 03:23:18;;;;;;;4.22;2.87;;;;;;;;;;1765490;81;21552;-69
2022/03/07 03:25:45;;;;;;;7.58;2.83;;;;;;;;;;1765603;81;20985;-69
2022/03/07 03:28:12;;;;;;;3.55;2.55;;;;;;;;;;1765846;81;20990;-69
2022/03/07 03:30:38;;;;;;;8.83;3.30;;;;;;;;;;1765627;81;20990;-69
2022/03/07 03:33:04;;;;;;;9.20;3.87;;;;;;;;;;1765645;81;21037;-68
2022/03/07 03:35:31;;;;;;;3.30;2.75;;;;;;;;;;1765714;81;21017;-69
2022/03/07 03:37:57;;;;;;;4.83;3.08;;;;;;;;;;1765494;81;21066;-68
2022/03/07 03:40:24;;;;;;;5.53;2.70;;;;;;;;;;1765561;81;21678;-68
2022/03/07 03:42:51;;;;;;;4.25;2.72;;;;;;;;;;1765754;81;21034;-68
2022/03/07 03:45:18;;;;;;;3.85;2.70;;;;;;;;;;1765731;81;21062;-68
2022/03/07 03:47:45;;;;;;;4.37;2.42;;;;;;;;;;1765692;81;21568;-69
2022/03/07 03:50:11;;;;;;;6.83;3.00;;;;;;;;;;1765662;81;21022;-68
2022/03/07 03:52:38;;;;;;;5.40;2.58;;;;;;;;;;1765389;81;21038;-69
2022/03/07 03:55:05;;;;;;;8.18;4.05;;;;;;;;;;1765663;81;21014;-69
2022/03/07 03:57:31;;;;;;;5.17;3.37;;;;;;;;;;1765675;81;20986;-69
2022/03/07 03:59:57;;;;;;;5.70;2.87;;;;;;;;;;1765632;81;21057;-69
2022/03/07 04:02:24;;;;;;;4.10;2.58;;;;;;;;;;1765631;81;21022;-69
2022/03/07 04:04:50;;;;;;;6.25;3.02;;;;;;;;;;1771564;80;21084;-69
2022/03/07 04:07:17;;;;;;;7.72;3.20;;;;;;;;;;1779170;81;21053;-69
2022/03/07 04:09:44;;;;;;;5.85;3.05;;;;;;;;;;1779417;81;21493;-69
2022/03/07 04:12:10;;;;;;;6.20;2.67;;;;;;;;;;1779478;81;21002;-70
2022/03/07 04:14:37;;;;;;;4.28;2.95;;;;;;;;;;1779438;81;21085;-69
2022/03/07 04:17:03;;;;;;;3.75;2.52;;;;;;;;;;1779461;81;21010;-69
2022/03/07 04:19:30;;;;;;;4.97;2.87;;;;;;;;;;1779352;81;21524;-68
2022/03/07 04:21:57;;;;;;;6.28;2.83;;;;;;;;;;1779621;81;21041;-69
2022/03/07 04:24:23;;;;;;;7.33;3.33;;;;;;;;;;1779538;81;21048;-69
2022/03/07 04:26:55;;;;;;;8.78;3.75;;;;;;;;;;1779361;81;21009;-70
2022/03/07 04:29:19;;;;;;;7.28;3.40;;;;;;;;;;1778567;80;21057;-70
2022/03/07 04:31:45;;;;;;;8.10;2.95;;;;;;;;;;1779568;81;21025;-70
2022/03/07 04:34:15;;;;;;;5.60;2.90;;;;;;;;;;1779531;81;21088;-70
2022/03/07 04:36:41;;;;;;;3.70;2.67;;;;;;;;;;1779701;81;21028;-69
2022/03/07 04:39:08;;;;;;;5.30;2.85;;;;;;;;;;1779536;81;21468;-69
2022/03/07 04:41:35;;;;;;;6.70;3.30;;;;;;;;;;1779458;81;21084;-69
2022/03/07 04:44:01;;;;;;;5.15;2.80;;;;;;;;;;1779377;81;21029;-70
2022/03/07 04:46:28;;;;;;;7.58;3.60;;;;;;;;;;1779687;81;21100;-69
2022/03/07 04:48:55;;;;;;;9.40;3.80;;;;;;;;;;1779483;81;21037;-69
2022/03/07 04:51:22;;;;;;;10.18;3.77;;;;;;;;;;1779401;81;21029;-69
2022/03/07 04:53:49;;;;;;;7.55;3.02;;;;;;;;;;1779545;81;20997;-69
2022/03/07 04:56:16;;;;;;;5.75;2.30;;;;;;;;;;1779506;81;21560;-69
2022/03/07 04:58:43;;;;;;;5.50;3.17;;;;;;;;;;1779335;81;21077;-70
2022/03/07 05:01:10;;;;;;;5.60;3.47;;;;;;;;;;1779474;81;21049;-69
2022/03/07 05:03:37;;;;;;;10.30;3.77;;;;;;;;;;1779421;79;21038;-69
2022/03/07 05:06:04;;;;;;;6.37;3.30;;;;;;;;;;1779238;80;21516;-70
2022/03/07 05:08:32;;;;;;;7.17;3.20;;;;;;;;;;1757589;81;21001;-69
2022/03/07 05:10:58;;;;;;;6.35;3.00;;;;;;;;;;1779380;81;21021;-70
2022/03/07 05:13:25;;;;;;;5.28;3.10;;;;;;;;;;1779134;81;21587;-70
2022/03/07 05:15:51;;;;;;;4.70;3.15;;;;;;;;;;1779197;81;21029;-70
2022/03/07 05:18:18;;;;;;;5.55;2.95;;;;;;;;;;1779257;81;21005;-69
2022/03/07 05:20:44;;;;;;;6.08;3.20;;;;;;;;;;1778718;81;21595;-70
2022/03/07 05:23:12;;;;;;;7.30;3.12;;;;;;;;;;1778930;81;21595;-69
2022/03/07 05:25:38;;;;;;;8.48;3.22;;;;;;;;;;1779206;81;21025;-69
2022/03/07 05:28:05;;;;;;;6.42;3.55;;;;;;;;;;1779434;81;21022;-69
2022/03/07 05:30:33;;;;;;;5.87;2.60;;;;;;;;;;1779175;81;21029;-68
2022/03/07 05:32:59;;;;;;;5.22;2.60;;;;;;;;;;1779260;81;21096;-69
2022/03/07 05:35:26;;;;;;;6.90;3.77;;;;;;;;;;1779094;81;21045;-69
2022/03/07 05:37:52;;;;;;;6.30;3.50;;;;;;;;;;1779411;81;21029;-69
2022/03/07 05:40:19;;;;;;;8.35;4.45;;;;;;;;;;1779267;81;21040;-69
2022/03/07 05:42:46;;;;;;;11.33;4.87;;;;;;;;;;1779420;81;21065;-69
2022/03/07 05:45:13;;;;;;;10.72;4.80;;;;;;;;;;1779102;81;21567;-69
2022/03/07 05:47:44;;;;;;;9.00;5.60;;;;;;;;;;1779472;81;21555;-69
2022/03/07 05:50:09;;;;;;;17.23;6.45;;;;;;;;;;1778887;81;21068;-69
2022/03/07 05:52:35;;;;;;;10.13;5.50;;;;;;;;;;1779497;81;21017;-69
2022/03/07 05:55:03;;;;;;;9.20;5.15;;;;;;;;;;1779373;81;21037;-69
2022/03/07 05:57:30;;;;;;;9.80;5.87;;;;;;;;;;1779253;81;21547;-69
2022/03/07 05:59:57;;;;;;;13.78;6.87;;;;;;;;;;1779457;81;21028;-69
2022/03/07 06:02:23;;;;;;;15.43;6.65;;;;;;;;;;1779472;81;20986;-68
2022/03/07 06:04:50;;;;;;;11.28;6.35;;;;;;;;;;1776396;79;21665;-69
2022/03/07 06:07:17;;;;;;;11.10;5.42;;;;;;;;;;1765812;81;21002;-69
2022/03/07 06:09:43;;;;;;;7.30;3.95;;;;;;;;;;1765985;81;21041;-68
2022/03/07 06:12:10;;;;;;;11.33;6.10;;;;;;;;;;1765547;81;21105;-69
2022/03/07 06:14:37;;;;;;;12.25;6.70;;;;;;;;;;1765860;81;21106;-68
2022/03/07 06:17:03;;;;;;;7.50;4.67;;;;;;;;;;1765700;81;20994;-68
2022/03/07 06:19:30;;;;;;;11.43;6.03;;;;;;;;;;1765844;81;21026;-68
2022/03/07 06:21:57;;;;;;;11.60;5.53;;;;;;;;;;1765664;81;21595;-68
2022/03/07 06:24:23;;;;;;;8.83;4.60;;;;;;;;;;1765732;81;21002;-68
2022/03/07 06:26:50;;;;;;;8.53;5.00;;;;;;;;;;1765567;81;21021;-68
2022/03/07 06:29:16;;;;;;;11.33;4.90;;;;;;;;;;1765893;81;21065;-68
2022/03/07 06:31:43;;;;;;;12.07;5.30;;;;;;;;;;1765531;81;21038;-69
2022/03/07 06:34:10;;;;;;;15.15;5.67;;;;;;;;;;1765801;81;21069;-69
2022/03/07 06:36:36;;;;;;;7.12;4.40;;;;;;;;;;1765731;81;21006;-69
2022/03/07 06:39:02;;;;;;;8.80;4.58;;;;;;;;;;1765775;81;21010;-69
2022/03/07 06:41:29;;;;;;;7.40;5.10;;;;;;;;;;1765638;81;21573;-69
2022/03/07 06:43:55;;;;;;;9.13;4.78;;;;;;;;;;1765681;81;21077;-69
2022/03/07 06:46:22;;;;;;;9.08;5.17;;;;;;;;;;1765826;81;21022;-69
2022/03/07 06:48:49;;;;;;;12.05;5.08;;;;;;;;;;1765592;81;21057;-69
2022/03/07 06:51:17;;;;;;;10.13;5.47;;;;;;;;;;1765830;81;21042;-69
2022/03/07 06:53:43;;;;;;;8.33;4.72;;;;;;;;;;1765819;81;21025;-69
2022/03/07 06:56:10;;;;;;;7.47;4.65;;;;;;;;;;1765494;81;21404;-69
2022/03/07 06:58:37;;;;;;;10.65;4.80;;;;;;;;;;1765763;81;21065;-69
2022/03/07 07:01:03;;;;;;;7.60;4.28;;;;;;;;;;1765758;81;21521;-70
2022/03/07 07:03:30;;;;;;;7.87;4.08;;;;;;;;;;1765807;80;21113;-69
2022/03/07 07:05:57;;;;;;;7.65;3.67;;;;;;;;;;1772893;80;21088;-69
2022/03/07 07:08:23;;;;;;;8.08;5.10;;;;;;;;;;1779403;81;21021;-69
2022/03/07 07:10:50;;;;;;;11.60;5.75;;;;;;;;;;1779238;81;21569;-69
2022/03/07 07:13:17;;;;;;;12.88;5.67;;;;;;;;;;1779428;81;21037;-69
2022/03/07 07:15:43;;;;;;;8.48;4.90;;;;;;;;;;1779330;81;21049;-69
2022/03/07 07:18:11;;;;;;;7.87;5.03;;;;;;;;;;1779229;81;21111;-69
2022/03/07 07:20:38;;;;;;;8.23;4.87;;;;;;;;;;1779334;81;21536;-69
2022/03/07 07:23:04;;;;;;;12.53;5.33;;;;;;;;;;1779348;81;21492;-68
2022/03/07 07:25:32;;;;;;;6.75;3.58;;;;;;;;;;1779314;81;21049;-68
2022/03/07 07:27:58;;;;;;;7.75;4.28;;;;;;;;;;1779469;81;21021;-70
2022/03/07 07:30:25;;;;;;;8.73;5.05;;;;;;;;;;1779315;81;21100;-69
2022/03/07 07:32:51;;;;;;;8.95;4.95;;;;;;;;;;1779401;81;21025;-69
2022/03/07 07:35:18;;;;;;;8.38;4.97;;;;;;;;;;1779439;81;21045;-70
2022/03/07 07:37:44;;;;;;;8.53;4.20;;;;;;;;;;1779415;81;21057;-70
2022/03/07 07:40:11;;;;;;;6.17;3.60;;;;;;;;;;1779291;81;21545;-70
2022/03/07 07:42:37;;;;;;;7.95;4.00;;;;;;;;;;1779524;80;21021;-70
2022/03/07 07:45:06;;;;;;;7.85;4.70;;;;;;;;;;1779249;81;21650;-70
2022/03/07 07:47:33;;;;;;;7.95;4.75;;;;;;;;;;1779306;81;21579;-70
2022/03/07 07:49:59;;;;;;;9.05;4.17;;;;;;;;;;1779495;81;21020;-70
2022/03/07 07:52:26;;;;;;;7.95;4.80;;;;;;;;;;1779519;81;21011;-69
2022/03/07 07:54:53;;;;;;;9.63;4.83;;;;;;;;;;1779173;81;21658;-68
2022/03/07 07:57:19;;;;;;;6.90;4.17;;;;;;;;;;1779571;81;21520;-68
2022/03/07 07:59:46;;;;;;;7.15;4.00;;;;;;;;;;1779521;81;21073;-69
2022/03/07 08:02:13;;;;;;;6.62;4.55;;;;;;;;;;1779111;81;21072;-70
2022/03/07 08:04:39;;;;;;;9.65;5.80;;;;;;;;;;1779299;79;21088;-71
2022/03/07 08:07:05;;;;;;;10.28;5.50;;;;;;;;;;1779143;80;21076;-72
2022/03/07 08:09:34;;;;;;;9.30;4.35;;;;;;;;;;1779359;81;21065;-68
2022/03/07 08:12:02;;;;;;;6.97;4.65;;;;;;;;;;1779178;81;21041;-69
2022/03/07 08:14:28;;;;;;;9.63;5.15;;;;;;;;;;1779411;81;21057;-69
2022/03/07 08:16:55;;;;;;;10.80;6.08;;;;;;;;;;1779133;81;21529;-69
2022/03/07 08:19:21;;;;;;;9.28;5.87;;;;;;;;;;1779618;81;21024;-70
2022/03/07 08:21:48;;;;;;;11.63;5.95;;;;;;;;;;1779574;81;21025;-70
2022/03/07 08:24:15;;;;;;;12.40;5.83;;;;;;;;;;1779234;81;21065;-70
2022/03/07 08:26:42;;;;;;;8.90;4.62;;;;;;;;;;1779474;81;21511;-70
2022/03/07 08:29:08;;;;;;;12.58;6.78;;;;;;;;;;1779459;81;21048;-70
2022/03/07 08:31:35;;;;;;;10.82;5.85;;;;;;;;;;1779292;81;21080;-69
2022/03/07 08:34:01;;;;;;;10.25;5.03;;;;;;;;;;1779468;81;20997;-70
2022/03/07 08:36:30;;;;;;;13.35;6.20;;;;;;;;;;1779309;81;20994;-69
2022/03/07 08:38:56;;;;;;;12.15;6.00;;;;;;;;;;1779153;81;21068;-69
2022/03/07 08:41:23;;;;;;;8.43;5.67;;;;;;;;;;1779397;81;21552;-69
2022/03/07 08:43:50;;;;;;;10.40;5.37;;;;;;;;;;1779567;81;21520;-69
2022/03/07 08:46:18;;;;;;;13.78;5.80;;;;;;;;;;1779070;81;21128;-69
2022/03/07 08:49:03;;;;;;;10.68;5.92;;;;;;;;;;1779510;81;21077;-69
2022/03/07 08:51:30;;;;;;;8.43;5.03;;;;;;;;;;1779143;81;21037;-68
2022/03/07 08:53:56;;;;;;;9.43;5.30;;;;;;;;;;1779549;80;21009;-68
2022/03/07 08:56:22;;;;;;;12.55;5.95;;;;;;;;;;1779464;81;21076;-69
2022/03/07 08:58:49;;;;;;;12.43;6.30;;;;;;;;;;1779681;81;21108;-69
2022/03/07 09:01:20;;;;;;;8.18;4.60;;;;;;;;;;1779267;81;21517;-70
2022/03/07 09:03:45;;;;;;;14.47;6.83;;;;;;;;;;1779472;79;21121;-69
2022/03/07 09:06:13;;;;;;;9.78;5.05;;;;;;;;;;1773149;80;21074;-69
2022/03/07 09:08:39;;;;;;;8.03;5.10;;;;;;;;;;1765869;81;21177;-68
2022/03/07 09:11:05;;;;;;;8.53;4.20;;;;;;;;;;1765925;81;21052;-70
2022/03/07 09:13:32;;;;;;;7.33;4.58;;;;;;;;;;1765620;81;21029;-69
2022/03/07 09:15:58;;;;;;;7.83;4.55;;;;;;;;;;1765824;81;21553;-70
2022/03/07 09:18:26;;;;;;;7.30;4.25;;;;;;;;;;1765836;81;21002;-69
2022/03/07 09:20:52;;;;;;;6.87;4.30;;;;;;;;;;1765747;81;21546;-69
2022/03/07 09:23:20;;;;;;;7.35;3.75;;;;;;;;;;1765534;81;21050;-69
2022/03/07 09:25:46;;;;;;;7.60;4.03;;;;;;;;;;1765551;81;21058;-69
2022/03/07 09:28:13;;;;;;;6.87;4.47;;;;;;;;;;1765561;81;21061;-69
2022/03/07 09:30:39;;;;;;;8.03;4.50;;;;;;;;;;1765788;81;21061;-70
2022/03/07 09:33:06;;;;;;;7.30;4.80;;;;;;;;;;1765707;81;21552;-69
2022/03/07 09:35:32;;;;;;;9.25;6.17;;;;;;;;;;1765792;81;21545;-69
2022/03/07 09:37:59;;;;;;;8.00;5.87;;;;;;;;;;1765807;81;21034;-69
2022/03/07 09:40:25;;;;;;;11.30;7.22;;;;;;;;;;1765758;81;21388;-69
2022/03/07 09:42:52;;;;;;;14.00;6.53;;;;;;;;;;1765575;81;21064;-69
2022/03/07 09:45:18;;;;;;;10.72;7.22;;;;;;;;;;1765711;81;21041;-69
2022/03/07 09:47:45;;;;;;;9.58;4.87;;;;;;;;;;1765718;81;21596;-69
2022/03/07 09:50:11;;;;;;;10.10;6.85;;;;;;;;;;1765672;81;21556;-69
2022/03/07 09:52:38;;;;;;;7.87;5.83;;;;;;;;;;1765496;81;21096;-69
2022/03/07 09:55:07;;;;;;;12.15;7.72;;;;;;;;;;1765729;81;21045;-69
2022/03/07 09:57:35;;;;;;;9.25;5.67;;;;;;;;;;1765542;81;21066;-69
2022/03/07 10:00:01;;;;;;;10.20;6.58;;;;;;;;;;1765603;81;21552;-69
2022/03/07 10:02:28;;;;;;;9.35;4.85;;;;;;;;;;1765357;81;21537;-69
2022/03/07 10:04:59;;;;;;;9.55;6.00;;;;;;;;;;1765294;80;21624;-69
2022/03/07 10:07:26;;;;;;;8.73;4.30;;;;;;;;;;1765799;80;21370;-70
2022/03/07 10:10:04;;;;;;;7.85;4.62;;;;;;;;;;1765667;81;21068;-69
2022/03/07 10:12:31;;;;;;;8.60;4.35;;;;;;;;;;1765617;81;21588;-69
2022/03/07 10:15:00;;;;;;;11.18;6.25;;;;;;;;;;1765447;81;21042;-69
2022/03/07 10:17:27;;;;;;;9.30;4.75;;;;;;;;;;1764013;81;21021;-69
2022/03/07 10:19:54;;;;;;;8.38;4.60;;;;;;;;;;1765630;81;21101;-70
2022/03/07 10:22:22;;;;;;;6.42;4.30;;;;;;;;;;1765701;81;21096;-70
2022/03/07 10:24:59;;;;;;;8.93;5.22;;;;;;;;;;1765648;81;21120;-70
2022/03/07 10:27:28;;;;;;;7.25;4.78;;;;;;;;;;1765779;81;21494;-69
2022/03/07 10:29:54;;;;;;;8.73;4.47;;;;;;;;;;1765453;81;21381;-70
2022/03/07 10:32:21;;;;;;;6.33;3.70;;;;;;;;;;1765757;81;21006;-70
2022/03/07 10:34:47;;;;;;;8.80;4.72;;;;;;;;;;1765873;81;21030;-69
2022/03/07 10:37:14;;;;;;;7.70;4.75;;;;;;;;;;1765715;81;21509;-70
2022/03/07 10:39:47;;;;;;;6.50;4.45;;;;;;;;;;1765878;81;20967;-69
2022/03/07 10:42:17;;;;;;;8.80;5.30;;;;;;;;;;1765836;81;21033;-69
2022/03/07 10:44:44;;;;;;;5.60;3.40;;;;;;;;;;1765812;81;20998;-68
2022/03/07 10:47:17;;;;;;;8.48;4.20;;;;;;;;;;1765550;81;21316;-68
2022/03/07 10:49:52;;;;;;;5.87;4.33;;;;;;;;;;1765704;81;21030;-69
2022/03/07 10:52:18;;;;;;;8.13;5.10;;;;;;;;;;1765594;81;21350;-69
2022/03/07 10:54:47;;;;;;;7.40;4.75;;;;;;;;;;1765424;81;21022;-70
2022/03/07 10:57:13;;;;;;;9.15;5.78;;;;;;;;;;1765600;81;21054;-70
2022/03/07 10:59:39;;;;;;;10.28;5.28;;;;;;;;;;1765929;81;21061;-69
2022/03/07 11:02:09;;;;;;;9.48;5.72;;;;;;;;;;1765515;81;21061;-70
2022/03/07 11:04:36;;;;;;;9.35;4.83;;;;;;;;;;1765653;80;21030;-69
2022/03/07 11:07:03;;;;;;;8.65;5.28;;;;;;;;;;1773121;80;21030;-69
2022/03/07 11:09:30;;;;;;;9.13;5.30;;;;;;;;;;1779310;81;21057;-69
2022/03/07 11:11:56;;;;;;;8.80;4.03;;;;;;;;;;1779280;81;20993;-69
2022/03/07 11:14:22;;;;;;;6.10;4.05;;;;;;;;;;1779444;81;21092;-69
2022/03/07 11:16:50;;;;;;;10.38;4.70;;;;;;;;;;1779376;81;21053;-69
2022/03/07 11:19:17;;;;;;;9.05;5.40;;;;;;;;;;1779403;81;21535;-69
2022/03/07 11:21:43;;;;;;;7.47;4.05;;;;;;;;;;1779342;81;22061;-69
2022/03/07 11:24:10;;;;;;;6.58;3.55;;;;;;;;;;1778995;81;21518;-69
2022/03/07 11:26:41;;;;;;;6.00;3.55;;;;;;;;;;1779179;81;21025;-69
2022/03/07 11:29:04;;;;;;;6.22;3.60;;;;;;;;;;1778945;80;21089;-69
2022/03/07 11:31:32;;;;;;;5.78;3.58;;;;;;;;;;1779085;81;21033;-69
2022/03/07 11:33:59;;;;;;;6.72;4.28;;;;;;;;;;1779300;81;21021;-69
2022/03/07 11:38:58;;;;;;;7.00;3.33;;;;;;;;;;1819885;79;22810;-67
2022/03/07 11:41:30;;;;;;;5.92;3.70;;;;;;;;;;1792687;80;21051;-67
2022/03/07 11:43:59;;;;;;;6.35;3.33;;;;;;;;;;1792412;80;21047;-67
2022/03/07 11:46:39;;;;;;;6.20;3.62;;;;;;;;;;1792847;80;20993;-67
2022/03/07 11:49:07;;;;;;;4.45;2.58;;;;;;;;;;1793052;80;21059;-67
2022/03/07 11:51:38;;;;;;;5.62;3.37;;;;;;;;;;1793233;80;21468;-67
2022/03/07 11:54:05;;;;;;;4.90;3.47;;;;;;;;;;1793163;80;21043;-67
2022/03/07 11:56:32;;;;;;;5.53;3.95;;;;;;;;;;1793140;80;21028;-67
2022/03/07 11:59:00;;;;;;;4.72;3.20;;;;;;;;;;1793106;80;21080;-67
2022/03/07 12:01:27;;;;;;;5.70;3.27;;;;;;;;;;1793049;80;21047;-67
2022/03/07 12:03:53;;;;;;;7.10;4.00;;;;;;;;;;1793113;80;20997;-66
2022/03/07 12:06:20;;;;;;;6.28;3.55;;;;;;;;;;1792875;80;21270;-66
2022/03/07 12:08:49;;;;;;;4.33;3.15;;;;;;;;;;1792896;80;21579;-67
2022/03/07 12:11:31;;;;;;;7.33;3.83;;;;;;;;;;1793177;80;21020;-67
2022/03/07 12:14:02;;;;;;;5.37;3.87;;;;;;;;;;1793083;80;21551;-67
2022/03/07 12:16:28;;;;;;;7.97;3.83;;;;;;;;;;1792662;80;21052;-67
2022/03/07 12:18:55;;;;;;;6.28;3.67;;;;;;;;;;1793280;80;20981;-67
2022/03/07 12:21:25;;;;;;;13.48;5.78;;;;;;;;;;1792895;80;21567;-67
2022/03/07 12:23:52;;;;;;;8.05;5.15;;;;;;;;;;1793294;80;21043;-68
2022/03/07 12:26:18;;;;;;;11.28;6.28;;;;;;;;;;1793136;80;21001;-67
2022/03/07 12:28:48;;;;;;;9.88;5.22;;;;;;;;;;1793235;80;21085;-67
2022/03/07 12:31:17;;;;;;;9.28;6.47;;;;;;;;;;1793001;80;21043;-67
2022/03/07 12:33:44;;;;;;;7.40;4.97;;;;;;;;;;1792719;80;21602;-67
2022/03/07 12:36:12;;;;;;;11.90;6.12;;;;;;;;;;1792677;80;21020;-67
2022/03/07 12:38:50;;;;;;;12.60;6.50;;;;;;;;;;1786495;80;21104;-67
2022/03/07 12:41:18;;;;;;;8.65;5.12;;;;;;;;;;1785285;80;21049;-67
2022/03/07 12:43:44;;;;;;;7.92;4.65;;;;;;;;;;1785293;80;21001;-67
2022/03/07 12:46:12;;;;;;;7.97;4.72;;;;;;;;;;1785146;80;21571;-67
2022/03/07 12:48:40;;;;;;;6.95;4.00;;;;;;;;;;1784709;80;21057;-67
2022/03/07 12:51:07;;;;;;;6.92;3.62;;;;;;;;;;1784644;80;20993;-66
2022/03/07 12:53:34;;;;;;;6.30;3.20;;;;;;;;;;1784592;80;21001;-67
2022/03/07 12:56:03;;;;;;;10.95;4.95;;;;;;;;;;1784517;80;21553;-67
2022/03/07 12:58:29;;;;;;;9.18;4.67;;;;;;;;;;1784303;80;21051;-66
2022/03/07 13:00:57;;;;;;;7.85;4.75;;;;;;;;;;1784757;80;21005;-68
2022/03/07 13:03:24;;;;;;;9.38;5.42;;;;;;;;;;1784610;80;21516;-67
2022/03/07 13:06:00;;;;;;;6.78;4.30;;;;;;;;;;1784653;80;21048;-67
2022/03/07 13:08:28;;;;;;;7.83;4.97;;;;;;;;;;1784320;80;21517;-67
2022/03/07 13:10:55;;;;;;;11.20;6.25;;;;;;;;;;1784600;80;21092;-68
2022/03/07 13:13:22;;;;;;;18.62;10.25;;;;;;;;;;1784430;80;21048;-67
2022/03/07 13:15:50;;;;;;;24.52;12.82;;;;;;;;;;1784650;80;21477;-68
2022/03/07 13:18:16;;;;;;;20.52;10.30;;;;;;;;;;1784292;80;21072;-67
2022/03/07 13:20:43;;;;;;;16.95;8.48;;;;;;;;;;1784700;80;21516;-67
2022/03/07 13:23:10;;;;;;;23.77;10.30;;;;;;;;;;1784702;80;21030;-67
2022/03/07 13:25:38;;;;;;;13.22;7.90;;;;;;;;;;1784618;80;21127;-67
2022/03/07 13:28:06;;;;;;;7.42;4.83;;;;;;;;;;1784646;80;21032;-67
2022/03/07 13:30:34;;;;;;;7.92;4.40;;;;;;;;;;1784427;80;21048;-67
2022/03/07 13:33:04;;;;;;;5.83;3.62;;;;;;;;;;1784810;80;21043;-67
2022/03/07 13:35:31;;;;;;;8.18;4.12;;;;;;;;;;1784671;80;21103;-67
2022/03/07 13:37:58;;;;;;;7.53;4.95;;;;;;;;;;1784426;80;21100;-67
2022/03/07 13:40:32;;;;;;;13.65;6.67;;;;;;;;;;1784556;80;21627;-68
2022/03/07 13:42:56;;;;;;;16.00;7.40;;;;;;;;;;1784487;80;21013;-67
2022/03/07 13:45:24;;;;;;;17.32;8.43;;;;;;;;;;1784704;80;21095;-68
2022/03/07 13:48:02;;;;;;;16.67;8.20;;;;;;;;;;1784602;80;21563;-67
2022/03/07 13:50:29;;;;;;;17.32;8.95;;;;;;;;;;1784660;80;21048;-68
2022/03/07 13:53:08;;;;;;;17.23;9.43;;;;;;;;;;1784479;80;21008;-68
2022/03/07 13:55:36;;;;;;;14.23;6.65;;;;;;;;;;1784866;80;21076;-68
2022/03/07 13:58:05;;;;;;;10.48;5.25;;;;;;;;;;1783878;80;21017;-68
2022/03/07 14:00:31;;;;;;;10.38;5.42;;;;;;;;;;1784763;80;21016;-68
2022/03/07 14:03:02;;;;;;;15.10;7.62;;;;;;;;;;1784363;80;21547;-68
2022/03/07 14:05:46;;;;;;;11.38;5.95;;;;;;;;;;1784788;80;21017;-68
2022/03/07 14:08:17;;;;;;;10.65;5.03;;;;;;;;;;1784520;80;21044;-65
2022/03/07 14:10:45;;;;;;;11.03;5.25;;;;;;;;;;1784579;80;21100;-67
2022/03/07 14:13:11;;;;;;;5.72;3.20;;;;;;;;;;1784687;80;21001;-67
2022/03/07 14:15:39;;;;;;;8.33;4.08;;;;;;;;;;1784547;80;21064;-67
2022/03/07 14:18:10;;;;;;;6.83;3.45;;;;;;;;;;1784260;80;21082;-67
2022/03/07 14:20:38;;;;;;;5.12;2.87;;;;;;;;;;1784530;80;21532;-68
2022/03/07 14:23:05;;;;;;;6.28;3.77;;;;;;;;;;1784267;80;21338;-67
2022/03/07 14:25:33;;;;;;;6.40;3.52;;;;;;;;;;1784198;80;21072;-68
2022/03/07 14:28:00;;;;;;;7.15;3.92;;;;;;;;;;1784388;80;20995;-67
2022/03/07 14:30:28;;;;;;;7.80;3.30;;;;;;;;;;1784245;80;21578;-68
2022/03/07 14:32:56;;;;;;;6.75;3.02;;;;;;;;;;1784219;80;21660;-67
2022/03/07 14:35:23;;;;;;;7.47;3.98;;;;;;;;;;1784661;80;21029;-68
2022/03/07 14:37:50;;;;;;;8.28;3.60;;;;;;;;;;1783066;80;21077;-68
2022/03/07 14:40:17;;;;;;;7.55;3.77;;;;;;;;;;1778702;81;21021;-68
2022/03/07 14:42:45;;;;;;;9.78;3.98;;;;;;;;;;1778655;81;21580;-68
2022/03/07 14:45:12;;;;;;;7.45;4.10;;;;;;;;;;1778726;81;21014;-67
2022/03/07 14:47:44;;;;;;;5.60;3.25;;;;;;;;;;1778375;81;21085;-67